sensor_id;sensor_type;location;lat;lon;timestamp;pressure;altitude;pressure_sealevel;temperature
70415;BMP280;57837;52.064;113.478;2024-03-02T00:02:26;93355.25;;;-11.57
70415;BMP280;57837;52.064;113.478;2024-03-02T00:05:29;93353.91;;;-11.63
70415;BMP280;57837;52.064;113.478;2024-03-02T00:08:33;93358.16;;;-11.64
70415;BMP280;57837;52.064;113.478;2024-03-02T00:11:37;93360.41;;;-11.45
70415;BMP280;57837;52.064;113.478;2024-03-02T00:14:40;93359.38;;;-11.44
70415;BMP280;57837;52.064;113.478;2024-03-02T00:17:44;93355.25;;;-11.57
70415;BMP280;57837;52.064;113.478;2024-03-02T00:20:48;93359.94;;;-11.55
70415;BMP280;57837;52.064;113.478;2024-03-02T00:23:53;93357.75;;;-11.57
70415;BMP280;57837;52.064;113.478;2024-03-02T00:26:56;93371.25;;;-11.58
70415;BMP280;57837;52.064;113.478;2024-03-02T00:30:01;93364.50;;;-11.57
70415;BMP280;57837;52.064;113.478;2024-03-02T00:33:08;93363.78;;;-11.41
70415;BMP280;57837;52.064;113.478;2024-03-02T00:36:14;93363.97;;;-11.28
70415;BMP280;57837;52.064;113.478;2024-03-02T00:39:18;93360.13;;;-10.83
70415;BMP280;57837;52.064;113.478;2024-03-02T00:42:22;93366.66;;;-10.26
70415;BMP280;57837;52.064;113.478;2024-03-02T00:45:26;93371.25;;;-9.69
70415;BMP280;57837;52.064;113.478;2024-03-02T00:48:30;93367.03;;;-9.06
70415;BMP280;57837;52.064;113.478;2024-03-02T00:51:40;93373.81;;;-8.41
70415;BMP280;57837;52.064;113.478;2024-03-02T00:54:45;93368.41;;;-7.94
70415;BMP280;57837;52.064;113.478;2024-03-02T00:57:48;93376.19;;;-7.47
70415;BMP280;57837;52.064;113.478;2024-03-02T01:00:51;93377.66;;;-7.05
70415;BMP280;57837;52.064;113.478;2024-03-02T01:03:55;93370.63;;;-6.56
70415;BMP280;57837;52.064;113.478;2024-03-02T01:06:58;93378.34;;;-5.86
70415;BMP280;57837;52.064;113.478;2024-03-02T01:10:02;93379.47;;;-5.29
70415;BMP280;57837;52.064;113.478;2024-03-02T01:13:07;93372.38;;;-5.04
70415;BMP280;57837;52.064;113.478;2024-03-02T01:16:10;93374.16;;;-5.78
70415;BMP280;57837;52.064;113.478;2024-03-02T01:19:13;93371.72;;;-5.75
70415;BMP280;57837;52.064;113.478;2024-03-02T01:22:17;93373.38;;;-5.63
70415;BMP280;57837;52.064;113.478;2024-03-02T01:25:25;93368.97;;;-5.50
70415;BMP280;57837;52.064;113.478;2024-03-02T01:28:28;93364.03;;;-5.82
70415;BMP280;57837;52.064;113.478;2024-03-02T01:31:32;93360.13;;;-5.79
70415;BMP280;57837;52.064;113.478;2024-03-02T01:34:35;93371.50;;;-5.50
70415;BMP280;57837;52.064;113.478;2024-03-02T01:37:39;93370.72;;;-5.35
70415;BMP280;57837;52.064;113.478;2024-03-02T01:40:43;93370.63;;;-5.19
70415;BMP280;57837;52.064;113.478;2024-03-02T01:43:50;93373.38;;;-4.67
70415;BMP280;57837;52.064;113.478;2024-03-02T01:46:53;93366.69;;;-4.33
70415;BMP280;57837;52.064;113.478;2024-03-02T01:49:57;93366.13;;;-4.22
70415;BMP280;57837;52.064;113.478;2024-03-02T01:53:01;93365.19;;;-4.37
70415;BMP280;57837;52.064;113.478;2024-03-02T01:56:08;93365.91;;;-4.37
70415;BMP280;57837;52.064;113.478;2024-03-02T01:59:12;93364.75;;;-4.43
70415;BMP280;57837;52.064;113.478;2024-03-02T02:02:16;93360.50;;;-4.12
70415;BMP280;57837;52.064;113.478;2024-03-02T02:05:20;93371.50;;;-3.98
70415;BMP280;57837;52.064;113.478;2024-03-02T02:08:24;93366.91;;;-3.66
70415;BMP280;57837;52.064;113.478;2024-03-02T02:11:27;93372.91;;;-3.74
70415;BMP280;57837;52.064;113.478;2024-03-02T02:14:30;93369.31;;;-3.99
70415;BMP280;57837;52.064;113.478;2024-03-02T02:17:34;93371.06;;;-3.77
70415;BMP280;57837;52.064;113.478;2024-03-02T02:20:38;93373.44;;;-3.27
70415;BMP280;57837;52.064;113.478;2024-03-02T02:23:41;93368.03;;;-3.26
70415;BMP280;57837;52.064;113.478;2024-03-02T02:26:48;93362.63;;;-3.24
70415;BMP280;57837;52.064;113.478;2024-03-02T02:29:51;93360.56;;;-3.19
70415;BMP280;57837;52.064;113.478;2024-03-02T02:32:55;93357.75;;;-3.44
70415;BMP280;57837;52.064;113.478;2024-03-02T02:35:59;93357.56;;;-3.61
70415;BMP280;57837;52.064;113.478;2024-03-02T02:39:04;93356.31;;;-3.45
70415;BMP280;57837;52.064;113.478;2024-03-02T02:42:07;93352.13;;;-3.30
70415;BMP280;57837;52.064;113.478;2024-03-02T02:45:11;93348.16;;;-3.27
70415;BMP280;57837;52.064;113.478;2024-03-02T02:48:18;93342.56;;;-2.70
70415;BMP280;57837;52.064;113.478;2024-03-02T02:51:22;93341.09;;;-2.74
70415;BMP280;57837;52.064;113.478;2024-03-02T02:54:27;93337.78;;;-2.82
70415;BMP280;57837;52.064;113.478;2024-03-02T02:57:35;93329.91;;;-2.66
70415;BMP280;57837;52.064;113.478;2024-03-02T03:00:40;93329.78;;;-2.36
70415;BMP280;57837;52.064;113.478;2024-03-02T03:03:45;93334.19;;;-2.29
70415;BMP280;57837;52.064;113.478;2024-03-02T03:06:48;93326.75;;;-1.90
70415;BMP280;57837;52.064;113.478;2024-03-02T03:09:52;93322.13;;;-1.81
70415;BMP280;57837;52.064;113.478;2024-03-02T03:12:56;93318.63;;;-1.41
70415;BMP280;57837;52.064;113.478;2024-03-02T03:16:00;93326.56;;;-1.57
70415;BMP280;57837;52.064;113.478;2024-03-02T03:19:04;93327.84;;;-1.95
70415;BMP280;57837;52.064;113.478;2024-03-02T03:22:08;93325.00;;;-1.86
70415;BMP280;57837;52.064;113.478;2024-03-02T03:25:12;93319.28;;;-1.65
70415;BMP280;57837;52.064;113.478;2024-03-02T03:28:15;93313.84;;;-1.60
70415;BMP280;57837;52.064;113.478;2024-03-02T03:31:18;93303.00;;;-1.57
70415;BMP280;57837;52.064;113.478;2024-03-02T03:34:22;93303.72;;;-1.67
70415;BMP280;57837;52.064;113.478;2024-03-02T03:37:25;93300.25;;;-2.07
70415;BMP280;57837;52.064;113.478;2024-03-02T03:40:37;93303.34;;;-2.39
70415;BMP280;57837;52.064;113.478;2024-03-02T03:43:40;93302.03;;;-2.70
70415;BMP280;57837;52.064;113.478;2024-03-02T03:46:44;93295.13;;;-2.73
70415;BMP280;57837;52.064;113.478;2024-03-02T03:49:48;93289.78;;;-2.64
70415;BMP280;57837;52.064;113.478;2024-03-02T03:52:52;93293.13;;;-2.56
70415;BMP280;57837;52.064;113.478;2024-03-02T03:55:56;93280.47;;;-2.53
70415;BMP280;57837;52.064;113.478;2024-03-02T03:58:59;93295.00;;;-2.39
70415;BMP280;57837;52.064;113.478;2024-03-02T04:02:03;93291.94;;;-2.66
70415;BMP280;57837;52.064;113.478;2024-03-02T04:05:07;93284.78;;;-2.57
70415;BMP280;57837;52.064;113.478;2024-03-02T04:08:14;93283.38;;;-2.54
70415;BMP280;57837;52.064;113.478;2024-03-02T04:11:18;93286.59;;;-2.57
70415;BMP280;57837;52.064;113.478;2024-03-02T04:14:22;93284.34;;;-2.66
70415;BMP280;57837;52.064;113.478;2024-03-02T04:17:25;93280.41;;;-2.63
70415;BMP280;57837;52.064;113.478;2024-03-02T04:20:29;93278.78;;;-2.86
70415;BMP280;57837;52.064;113.478;2024-03-02T04:23:33;93270.34;;;-3.01
70415;BMP280;57837;52.064;113.478;2024-03-02T04:26:36;93272.38;;;-3.17
70415;BMP280;57837;52.064;113.478;2024-03-02T04:29:40;93276.19;;;-3.71
70415;BMP280;57837;52.064;113.478;2024-03-02T04:32:43;93266.66;;;-3.81
70415;BMP280;57837;52.064;113.478;2024-03-02T04:35:49;93271.00;;;-3.48
70415;BMP280;57837;52.064;113.478;2024-03-02T04:38:52;93258.75;;;-3.46
70415;BMP280;57837;52.064;113.478;2024-03-02T04:41:56;93262.91;;;-3.23
70415;BMP280;57837;52.064;113.478;2024-03-02T04:45:00;93259.66;;;-3.24
70415;BMP280;57837;52.064;113.478;2024-03-02T04:48:04;93255.63;;;-2.91
70415;BMP280;57837;52.064;113.478;2024-03-02T04:51:07;93256.78;;;-2.78
70415;BMP280;57837;52.064;113.478;2024-03-02T04:54:10;93251.75;;;-2.75
70415;BMP280;57837;52.064;113.478;2024-03-02T04:57:14;93249.81;;;-2.92
70415;BMP280;57837;52.064;113.478;2024-03-02T05:00:18;93234.34;;;-2.80
70415;BMP280;57837;52.064;113.478;2024-03-02T05:03:22;93245.41;;;-2.99
70415;BMP280;57837;52.064;113.478;2024-03-02T05:06:25;93252.22;;;-3.10
70415;BMP280;57837;52.064;113.478;2024-03-02T05:09:29;93237.84;;;-3.43
70415;BMP280;57837;52.064;113.478;2024-03-02T05:12:32;93248.28;;;-3.44
70415;BMP280;57837;52.064;113.478;2024-03-02T05:15:48;93228.13;;;-3.37
70415;BMP280;57837;52.064;113.478;2024-03-02T05:18:51;93232.50;;;-3.34
70415;BMP280;57837;52.064;113.478;2024-03-02T05:21:54;93229.44;;;-3.10
70415;BMP280;57837;52.064;113.478;2024-03-02T05:24:57;93235.75;;;-2.89
70415;BMP280;57837;52.064;113.478;2024-03-02T05:28:02;93230.81;;;-3.19
70415;BMP280;57837;52.064;113.478;2024-03-02T05:31:09;93218.34;;;-3.39
70415;BMP280;57837;52.064;113.478;2024-03-02T05:34:14;93228.66;;;-3.17
70415;BMP280;57837;52.064;113.478;2024-03-02T05:37:17;93215.31;;;-3.14
70415;BMP280;57837;52.064;113.478;2024-03-02T05:40:21;93212.09;;;-3.08
70415;BMP280;57837;52.064;113.478;2024-03-02T05:43:25;93199.47;;;-3.01
70415;BMP280;57837;52.064;113.478;2024-03-02T05:46:28;93216.44;;;-3.08
70415;BMP280;57837;52.064;113.478;2024-03-02T05:49:31;93202.41;;;-3.46
70415;BMP280;57837;52.064;113.478;2024-03-02T05:52:34;93191.09;;;-3.59
70415;BMP280;57837;52.064;113.478;2024-03-02T05:55:37;93202.41;;;-3.46
70415;BMP280;57837;52.064;113.478;2024-03-02T05:58:41;93199.56;;;-3.41
70415;BMP280;57837;52.064;113.478;2024-03-02T06:02:04;93191.50;;;-3.06
70415;BMP280;57837;52.064;113.478;2024-03-02T06:05:07;93185.16;;;-2.82
70415;BMP280;57837;52.064;113.478;2024-03-02T06:08:10;93194.31;;;-2.63
70415;BMP280;57837;52.064;113.478;2024-03-02T06:11:13;93188.09;;;-2.70
70415;BMP280;57837;52.064;113.478;2024-03-02T06:14:16;93176.91;;;-2.69
70415;BMP280;57837;52.064;113.478;2024-03-02T06:17:20;93187.47;;;-2.56
70415;BMP280;57837;52.064;113.478;2024-03-02T06:20:23;93181.59;;;-2.74
70415;BMP280;57837;52.064;113.478;2024-03-02T06:23:27;93178.00;;;-2.66
70415;BMP280;57837;52.064;113.478;2024-03-02T06:26:30;93183.56;;;-3.05
70415;BMP280;57837;52.064;113.478;2024-03-02T06:29:34;93186.22;;;-3.38
70415;BMP280;57837;52.064;113.478;2024-03-02T06:32:38;93177.72;;;-3.60
70415;BMP280;57837;52.064;113.478;2024-03-02T06:35:41;93178.84;;;-3.50
70415;BMP280;57837;52.064;113.478;2024-03-02T06:38:44;93180.03;;;-3.41
70415;BMP280;57837;52.064;113.478;2024-03-02T06:41:47;93168.81;;;-3.43
70415;BMP280;57837;52.064;113.478;2024-03-02T06:44:50;93181.00;;;-3.56
70415;BMP280;57837;52.064;113.478;2024-03-02T06:47:53;93191.22;;;-3.79
70415;BMP280;57837;52.064;113.478;2024-03-02T06:50:57;93179.88;;;-3.96
70415;BMP280;57837;52.064;113.478;2024-03-02T06:54:00;93169.13;;;-3.89
70415;BMP280;57837;52.064;113.478;2024-03-02T06:57:03;93180.50;;;-3.72
70415;BMP280;57837;52.064;113.478;2024-03-02T07:00:07;93177.63;;;-3.71
70415;BMP280;57837;52.064;113.478;2024-03-02T07:03:11;93177.50;;;-3.81
70415;BMP280;57837;52.064;113.478;2024-03-02T07:06:15;93177.19;;;-3.76
70415;BMP280;57837;52.064;113.478;2024-03-02T07:09:18;93174.50;;;-3.53
70415;BMP280;57837;52.064;113.478;2024-03-02T07:12:26;93170.69;;;-3.37
70415;BMP280;57837;52.064;113.478;2024-03-02T07:15:29;93175.50;;;-3.21
70415;BMP280;57837;52.064;113.478;2024-03-02T07:18:48;93171.97;;;-3.09
70415;BMP280;57837;52.064;113.478;2024-03-02T07:21:54;93171.66;;;-2.97
70415;BMP280;57837;52.064;113.478;2024-03-02T07:24:58;93165.50;;;-3.03
70415;BMP280;57837;52.064;113.478;2024-03-02T07:28:02;93160.88;;;-2.94
70415;BMP280;57837;52.064;113.478;2024-03-02T07:31:07;93168.38;;;-3.05
70415;BMP280;57837;52.064;113.478;2024-03-02T07:34:11;93162.50;;;-3.19
70415;BMP280;57837;52.064;113.478;2024-03-02T07:37:14;93163.22;;;-3.19
70415;BMP280;57837;52.064;113.478;2024-03-02T07:40:17;93162.63;;;-3.02
70415;BMP280;57837;52.064;113.478;2024-03-02T07:43:21;93166.19;;;-3.10
70415;BMP280;57837;52.064;113.478;2024-03-02T07:46:25;93166.84;;;-3.20
70415;BMP280;57837;52.064;113.478;2024-03-02T07:49:29;93168.84;;;-3.40
70415;BMP280;57837;52.064;113.478;2024-03-02T07:52:33;93167.09;;;-3.36
70415;BMP280;57837;52.064;113.478;2024-03-02T07:55:37;93165.69;;;-3.29
70415;BMP280;57837;52.064;113.478;2024-03-02T07:58:40;93161.25;;;-3.43
70415;BMP280;57837;52.064;113.478;2024-03-02T08:01:46;93155.13;;;-3.39
70415;BMP280;57837;52.064;113.478;2024-03-02T08:04:50;93154.41;;;-3.39
70415;BMP280;57837;52.064;113.478;2024-03-02T08:07:54;93162.19;;;-3.14
70415;BMP280;57837;52.064;113.478;2024-03-02T08:10:58;93168.16;;;-2.85
70415;BMP280;57837;52.064;113.478;2024-03-02T08:14:03;93163.16;;;-2.75
70415;BMP280;57837;52.064;113.478;2024-03-02T08:17:07;93170.75;;;-2.75
70415;BMP280;57837;52.064;113.478;2024-03-02T08:20:13;93167.09;;;-2.81
70415;BMP280;57837;52.064;113.478;2024-03-02T08:23:17;93174.34;;;-2.72
70415;BMP280;57837;52.064;113.478;2024-03-02T08:26:21;93165.69;;;-2.68
70415;BMP280;57837;52.064;113.478;2024-03-02T08:29:25;93167.78;;;-2.84
70415;BMP280;57837;52.064;113.478;2024-03-02T08:32:29;93178.16;;;-3.00
70415;BMP280;57837;52.064;113.478;2024-03-02T08:35:32;93164.41;;;-3.06
70415;BMP280;57837;52.064;113.478;2024-03-02T08:38:40;93173.47;;;-3.01
70415;BMP280;57837;52.064;113.478;2024-03-02T08:41:47;93177.06;;;-2.99
70415;BMP280;57837;52.064;113.478;2024-03-02T08:44:51;93172.81;;;-2.91
70415;BMP280;57837;52.064;113.478;2024-03-02T08:47:55;93158.09;;;-2.75
70415;BMP280;57837;52.064;113.478;2024-03-02T08:50:58;93174.06;;;-2.63
70415;BMP280;57837;52.064;113.478;2024-03-02T08:54:01;93168.72;;;-2.37
70415;BMP280;57837;52.064;113.478;2024-03-02T08:57:05;93171.84;;;-2.65
70415;BMP280;57837;52.064;113.478;2024-03-02T09:00:10;93175.38;;;-2.87
70415;BMP280;57837;52.064;113.478;2024-03-02T09:03:13;93176.53;;;-2.67
70415;BMP280;57837;52.064;113.478;2024-03-02T09:06:18;93179.13;;;-2.60
70415;BMP280;57837;52.064;113.478;2024-03-02T09:09:24;93173.00;;;-2.55
70415;BMP280;57837;52.064;113.478;2024-03-02T09:12:27;93181.41;;;-2.37
70415;BMP280;57837;52.064;113.478;2024-03-02T09:15:32;93185.03;;;-2.31
70415;BMP280;57837;52.064;113.478;2024-03-02T09:18:39;93187.25;;;-2.26
70415;BMP280;57837;52.064;113.478;2024-03-02T09:21:43;93184.13;;;-2.71
70415;BMP280;57837;52.064;113.478;2024-03-02T09:24:47;93182.66;;;-2.72
70415;BMP280;57837;52.064;113.478;2024-03-02T09:27:51;93179.75;;;-2.81
70415;BMP280;57837;52.064;113.478;2024-03-02T09:30:55;93180.69;;;-3.00
70415;BMP280;57837;52.064;113.478;2024-03-02T09:34:02;93191.03;;;-3.22
70415;BMP280;57837;52.064;113.478;2024-03-02T09:37:08;93187.03;;;-3.23
70415;BMP280;57837;52.064;113.478;2024-03-02T09:40:13;93190.06;;;-3.07
70415;BMP280;57837;52.064;113.478;2024-03-02T09:43:16;93192.97;;;-3.05
70415;BMP280;57837;52.064;113.478;2024-03-02T09:46:21;93202.34;;;-3.09
70415;BMP280;57837;52.064;113.478;2024-03-02T09:49:24;93195.31;;;-2.72
70415;BMP280;57837;52.064;113.478;2024-03-02T09:52:28;93199.47;;;-2.39
70415;BMP280;57837;52.064;113.478;2024-03-02T09:55:31;93193.69;;;-2.36
70415;BMP280;57837;52.064;113.478;2024-03-02T09:58:35;93203.66;;;-2.71
70415;BMP280;57837;52.064;113.478;2024-03-02T10:01:38;93209.09;;;-2.66
70415;BMP280;57837;52.064;113.478;2024-03-02T10:04:42;93209.22;;;-2.48
70415;BMP280;57837;52.064;113.478;2024-03-02T10:08:01;93213.56;;;-3.07
70415;BMP280;57837;52.064;113.478;2024-03-02T10:11:06;93213.41;;;-3.24
70415;BMP280;57837;52.064;113.478;2024-03-02T10:14:11;93215.81;;;-3.42
70415;BMP280;57837;52.064;113.478;2024-03-02T10:17:17;93217.91;;;-3.48
70415;BMP280;57837;52.064;113.478;2024-03-02T10:20:27;93219.44;;;-3.40
70415;BMP280;57837;52.064;113.478;2024-03-02T10:23:36;93218.59;;;-3.88
70415;BMP280;57837;52.064;113.478;2024-03-02T10:26:39;93221.34;;;-4.00
70415;BMP280;57837;52.064;113.478;2024-03-02T10:29:47;93224.25;;;-4.28
70415;BMP280;57837;52.064;113.478;2024-03-02T10:32:52;93226.91;;;-4.47
70415;BMP280;57837;52.064;113.478;2024-03-02T10:35:56;93230.50;;;-4.48
70415;BMP280;57837;52.064;113.478;2024-03-02T10:39:02;93235.94;;;-4.16
70415;BMP280;57837;52.064;113.478;2024-03-02T10:42:07;93234.97;;;-4.38
70415;BMP280;57837;52.064;113.478;2024-03-02T10:45:12;93226.53;;;-4.49
70415;BMP280;57837;52.064;113.478;2024-03-02T10:48:18;93232.78;;;-4.66
70415;BMP280;57837;52.064;113.478;2024-03-02T10:51:21;93238.66;;;-5.08
70415;BMP280;57837;52.064;113.478;2024-03-02T10:54:25;93241.03;;;-5.38
70415;BMP280;57837;52.064;113.478;2024-03-02T10:57:35;93240.25;;;-5.61
70415;BMP280;57837;52.064;113.478;2024-03-02T11:00:44;93247.44;;;-5.82
70415;BMP280;57837;52.064;113.478;2024-03-02T11:03:49;93245.97;;;-6.03
70415;BMP280;57837;52.064;113.478;2024-03-02T11:07:06;93248.03;;;-6.24
70415;BMP280;57837;52.064;113.478;2024-03-02T11:10:11;93245.47;;;-6.43
70415;BMP280;57837;52.064;113.478;2024-03-02T11:13:15;93252.78;;;-6.54
70415;BMP280;57837;52.064;113.478;2024-03-02T11:16:36;93253.13;;;-6.71
70415;BMP280;57837;52.064;113.478;2024-03-02T11:19:41;93255.25;;;-6.89
70415;BMP280;57837;52.064;113.478;2024-03-02T11:22:45;93263.50;;;-7.04
70415;BMP280;57837;52.064;113.478;2024-03-02T11:25:49;93263.66;;;-7.13
70415;BMP280;57837;52.064;113.478;2024-03-02T11:28:52;93256.41;;;-7.30
70415;BMP280;57837;52.064;113.478;2024-03-02T11:31:58;93264.31;;;-7.44
70415;BMP280;57837;52.064;113.478;2024-03-02T11:35:03;93270.13;;;-7.56
70415;BMP280;57837;52.064;113.478;2024-03-02T11:38:07;93267.59;;;-7.56
70415;BMP280;57837;52.064;113.478;2024-03-02T11:41:12;93268.78;;;-7.65
70415;BMP280;57837;52.064;113.478;2024-03-02T11:44:18;93272.56;;;-7.72
70415;BMP280;57837;52.064;113.478;2024-03-02T11:47:50;93275.06;;;-7.72
70415;BMP280;57837;52.064;113.478;2024-03-02T11:50:58;93283.44;;;-7.80
70415;BMP280;57837;52.064;113.478;2024-03-02T11:54:03;93280.47;;;-8.10
70415;BMP280;57837;52.064;113.478;2024-03-02T11:57:07;93290.22;;;-8.32
70415;BMP280;57837;52.064;113.478;2024-03-02T12:00:18;93282.78;;;-8.41
70415;BMP280;57837;52.064;113.478;2024-03-02T12:03:24;93284.56;;;-8.42
70415;BMP280;57837;52.064;113.478;2024-03-02T12:06:29;93285.28;;;-8.41
70415;BMP280;57837;52.064;113.478;2024-03-02T12:09:33;93283.63;;;-8.37
70415;BMP280;57837;52.064;113.478;2024-03-02T12:12:37;93285.47;;;-8.46
70415;BMP280;57837;52.064;113.478;2024-03-02T12:15:40;93282.03;;;-8.54
70415;BMP280;57837;52.064;113.478;2024-03-02T12:18:43;93277.03;;;-8.54
70415;BMP280;57837;52.064;113.478;2024-03-02T12:21:46;93280.56;;;-8.55
70415;BMP280;57837;52.064;113.478;2024-03-02T12:24:50;93277.34;;;-8.55
70415;BMP280;57837;52.064;113.478;2024-03-02T12:28:00;93285.25;;;-8.66
70415;BMP280;57837;52.064;113.478;2024-03-02T12:31:04;93290.16;;;-8.69
70415;BMP280;57837;52.064;113.478;2024-03-02T12:34:07;93287.03;;;-8.78
70415;BMP280;57837;52.064;113.478;2024-03-02T12:37:12;93280.97;;;-8.65
70415;BMP280;57837;52.064;113.478;2024-03-02T12:40:18;93276.69;;;-8.65
70415;BMP280;57837;52.064;113.478;2024-03-02T12:43:21;93277.00;;;-8.66
70415;BMP280;57837;52.064;113.478;2024-03-02T12:46:26;93274.25;;;-8.73
70415;BMP280;57837;52.064;113.478;2024-03-02T12:49:29;93275.84;;;-8.69
70415;BMP280;57837;52.064;113.478;2024-03-02T12:52:34;93278.91;;;-8.63
70415;BMP280;57837;52.064;113.478;2024-03-02T12:55:38;93277.00;;;-8.66
70415;BMP280;57837;52.064;113.478;2024-03-02T12:58:41;93275.53;;;-8.67
70415;BMP280;57837;52.064;113.478;2024-03-02T13:01:55;93286.06;;;-8.74
70415;BMP280;57837;52.064;113.478;2024-03-02T13:05:02;93291.22;;;-8.82
70415;BMP280;57837;52.064;113.478;2024-03-02T13:08:06;93279.56;;;-8.99
70415;BMP280;57837;52.064;113.478;2024-03-02T13:11:11;93280.72;;;-8.97
70415;BMP280;57837;52.064;113.478;2024-03-02T13:14:15;93284.38;;;-8.94
70415;BMP280;57837;52.064;113.478;2024-03-02T13:17:20;93286.03;;;-8.98
70415;BMP280;57837;52.064;113.478;2024-03-02T13:20:30;93284.56;;;-8.99
70415;BMP280;57837;52.064;113.478;2024-03-02T13:23:35;93286.88;;;-8.94
70415;BMP280;57837;52.064;113.478;2024-03-02T13:26:38;93285.94;;;-9.02
70415;BMP280;57837;52.064;113.478;2024-03-02T13:29:44;93276.63;;;-9.01
70415;BMP280;57837;52.064;113.478;2024-03-02T13:32:48;93280.72;;;-8.97
70415;BMP280;57837;52.064;113.478;2024-03-02T13:35:52;93284.38;;;-8.94
70415;BMP280;57837;52.064;113.478;2024-03-02T13:38:56;93285.22;;;-8.90
70415;BMP280;57837;52.064;113.478;2024-03-02T13:42:01;93294.38;;;-8.94
70415;BMP280;57837;52.064;113.478;2024-03-02T13:45:09;93297.00;;;-9.03
70415;BMP280;57837;52.064;113.478;2024-03-02T13:48:13;93300.59;;;-9.12
70415;BMP280;57837;52.064;113.478;2024-03-02T13:51:17;93299.66;;;-9.20
70415;BMP280;57837;52.064;113.478;2024-03-02T13:54:21;93307.28;;;-9.16
70415;BMP280;57837;52.064;113.478;2024-03-02T13:57:25;93301.28;;;-9.24
70415;BMP280;57837;52.064;113.478;2024-03-02T14:00:30;93302.00;;;-9.36
70415;BMP280;57837;52.064;113.478;2024-03-02T14:03:33;93300.75;;;-9.50
70415;BMP280;57837;52.064;113.478;2024-03-02T14:06:37;93298.84;;;-9.54
70415;BMP280;57837;52.064;113.478;2024-03-02T14:10:05;93300.13;;;-9.68
70415;BMP280;57837;52.064;113.478;2024-03-02T14:13:09;93298.78;;;-9.87
70415;BMP280;57837;52.064;113.478;2024-03-02T14:16:12;93301.50;;;-10.00
70415;BMP280;57837;52.064;113.478;2024-03-02T14:19:15;93308.63;;;-10.11
70415;BMP280;57837;52.064;113.478;2024-03-02T14:22:20;93312.34;;;-10.17
70415;BMP280;57837;52.064;113.478;2024-03-02T14:25:24;93311.34;;;-10.25
70415;BMP280;57837;52.064;113.478;2024-03-02T14:28:28;93314.63;;;-10.12
70415;BMP280;57837;52.064;113.478;2024-03-02T14:31:51;93315.38;;;-10.12
70415;BMP280;57837;52.064;113.478;2024-03-02T14:34:55;93320.19;;;-10.27
70415;BMP280;57837;52.064;113.478;2024-03-02T14:37:59;93317.69;;;-10.36
70415;BMP280;57837;52.064;113.478;2024-03-02T14:41:03;93326.72;;;-10.44
70415;BMP280;57837;52.064;113.478;2024-03-02T14:44:06;93322.88;;;-10.50
70415;BMP280;57837;52.064;113.478;2024-03-02T14:47:10;93321.56;;;-10.56
70415;BMP280;57837;52.064;113.478;2024-03-02T14:50:13;93319.97;;;-10.60
70415;BMP280;57837;52.064;113.478;2024-03-02T14:53:19;93319.53;;;-10.62
70415;BMP280;57837;52.064;113.478;2024-03-02T14:56:22;93327.78;;;-10.71
70415;BMP280;57837;52.064;113.478;2024-03-02T14:59:27;93326.50;;;-10.77
70415;BMP280;57837;52.064;113.478;2024-03-02T15:02:32;93320.75;;;-10.94
70415;BMP280;57837;52.064;113.478;2024-03-02T15:05:35;93327.41;;;-10.98
70415;BMP280;57837;52.064;113.478;2024-03-02T15:08:38;93325.03;;;-11.12
70415;BMP280;57837;52.064;113.478;2024-03-02T15:11:45;93327.81;;;-11.22
70415;BMP280;57837;52.064;113.478;2024-03-02T15:14:48;93325.34;;;-11.14
70415;BMP280;57837;52.064;113.478;2024-03-02T15:17:52;93327.69;;;-11.35
70415;BMP280;57837;52.064;113.478;2024-03-02T15:20:56;93319.31;;;-11.47
70415;BMP280;57837;52.064;113.478;2024-03-02T15:23:59;93318.53;;;-11.65
70415;BMP280;57837;52.064;113.478;2024-03-02T15:27:04;93315.19;;;-11.61
70415;BMP280;57837;52.064;113.478;2024-03-02T15:30:09;93314.47;;;-11.52
70415;BMP280;57837;52.064;113.478;2024-03-02T15:33:13;93311.53;;;-11.54
70415;BMP280;57837;52.064;113.478;2024-03-02T15:36:17;93315.78;;;-11.46
70415;BMP280;57837;52.064;113.478;2024-03-02T15:39:20;93321.66;;;-11.42
70415;BMP280;57837;52.064;113.478;2024-03-02T15:42:24;93322.69;;;-11.52
70415;BMP280;57837;52.064;113.478;2024-03-02T15:45:28;93320.78;;;-11.55
70415;BMP280;57837;52.064;113.478;2024-03-02T15:48:36;93322.78;;;-11.74
70415;BMP280;57837;52.064;113.478;2024-03-02T15:51:40;93328.94;;;-11.72
70415;BMP280;57837;52.064;113.478;2024-03-02T15:54:50;93332.91;;;-11.79
70415;BMP280;57837;52.064;113.478;2024-03-02T15:57:54;93323.22;;;-11.81
70415;BMP280;57837;52.064;113.478;2024-03-02T16:00:57;93329.81;;;-11.76
70415;BMP280;57837;52.064;113.478;2024-03-02T16:04:02;93328.78;;;-11.84
70415;BMP280;57837;52.064;113.478;2024-03-02T16:07:05;93337.56;;;-11.87
70415;BMP280;57837;52.064;113.478;2024-03-02T16:10:09;93337.13;;;-11.89
70415;BMP280;57837;52.064;113.478;2024-03-02T16:13:14;93345.63;;;-11.90
70415;BMP280;57837;52.064;113.478;2024-03-02T16:16:18;93342.19;;;-12.02
70415;BMP280;57837;52.064;113.478;2024-03-02T16:19:22;93342.09;;;-11.97
70415;BMP280;57837;52.064;113.478;2024-03-02T16:22:34;93340.03;;;-11.95
70415;BMP280;57837;52.064;113.478;2024-03-02T16:25:38;93345.75;;;-11.95
70415;BMP280;57837;52.064;113.478;2024-03-02T16:28:45;93353.94;;;-12.03
70415;BMP280;57837;52.064;113.478;2024-03-02T16:31:49;93348.25;;;-11.95
70415;BMP280;57837;52.064;113.478;2024-03-02T16:34:52;93352.34;;;-11.99
70415;BMP280;57837;52.064;113.478;2024-03-02T16:37:56;93362.16;;;-12.02
70415;BMP280;57837;52.064;113.478;2024-03-02T16:41:00;93361.69;;;-12.04
70415;BMP280;57837;52.064;113.478;2024-03-02T16:44:04;93368.38;;;-12.22
70415;BMP280;57837;52.064;113.478;2024-03-02T16:47:08;93370.59;;;-12.21
70415;BMP280;57837;52.064;113.478;2024-03-02T16:50:15;93370.06;;;-12.31
70415;BMP280;57837;52.064;113.478;2024-03-02T16:53:19;93372.00;;;-12.28
70415;BMP280;57837;52.064;113.478;2024-03-02T16:56:23;93375.94;;;-12.36
70415;BMP280;57837;52.064;113.478;2024-03-02T16:59:28;93373.97;;;-12.48
70415;BMP280;57837;52.064;113.478;2024-03-02T17:02:32;93375.53;;;-12.52
70415;BMP280;57837;52.064;113.478;2024-03-02T17:05:35;93369.25;;;-12.49
70415;BMP280;57837;52.064;113.478;2024-03-02T17:08:39;93380.47;;;-12.38
70415;BMP280;57837;52.064;113.478;2024-03-02T17:11:42;93362.78;;;-12.50